sensor_id;sensor_type;location;lat;lon;timestamp;pressure;altitude;pressure_sealevel;temperature;humidity
35694;BME280;21812;55.536;37.664;2022-10-16T00:00:38;100986.94;;;9.35;50.33
35694;BME280;21812;55.536;37.664;2022-10-16T00:03:05;101022.66;;;9.60;50.86
35694;BME280;21812;55.536;37.664;2022-10-16T00:05:31;101021.06;;;9.67;51.04
35694;BME280;21812;55.536;37.664;2022-10-16T00:07:57;101023.25;;;9.90;52.29
35694;BME280;21812;55.536;37.664;2022-10-16T00:10:23;101029.75;;;10.05;51.87
35694;BME280;21812;55.536;37.664;2022-10-16T00:12:48;101003.50;;;10.01;52.26
35694;BME280;21812;55.536;37.664;2022-10-16T00:15:15;101026.88;;;9.81;48.53
35694;BME280;21812;55.536;37.664;2022-10-16T00:17:40;101031.34;;;9.80;50.50
35694;BME280;21812;55.536;37.664;2022-10-16T00:20:06;101029.44;;;9.72;50.45
35694;BME280;21812;55.536;37.664;2022-10-16T00:22:50;101029.50;;;9.98;53.67
35694;BME280;21812;55.536;37.664;2022-10-16T00:25:16;101037.00;;;9.77;50.65
35694;BME280;21812;55.536;37.664;2022-10-16T00:27:42;101031.69;;;10.03;51.98
35694;BME280;21812;55.536;37.664;2022-10-16T00:30:08;101025.66;;;10.37;51.76
35694;BME280;21812;55.536;37.664;2022-10-16T00:32:34;101024.53;;;10.40;52.09
35694;BME280;21812;55.536;37.664;2022-10-16T00:34:59;101025.97;;;10.16;50.96
35694;BME280;21812;55.536;37.664;2022-10-16T00:37:25;101031.88;;;9.84;48.04
35694;BME280;21812;55.536;37.664;2022-10-16T00:39:51;101042.16;;;9.78;54.04
35694;BME280;21812;55.536;37.664;2022-10-16T00:42:17;101038.13;;;9.74;52.45
35694;BME280;21812;55.536;37.664;2022-10-16T00:44:55;101021.00;;;9.77;51.86
35694;BME280;21812;55.536;37.664;2022-10-16T00:47:39;101043.91;;;9.88;52.38
35694;BME280;21812;55.536;37.664;2022-10-16T00:50:09;100997.66;;;9.61;51.42
35694;BME280;21812;55.536;37.664;2022-10-16T00:52:39;101024.47;;;10.13;53.25
35694;BME280;21812;55.536;37.664;2022-10-16T00:55:08;101009.31;;;10.22;49.12
35694;BME280;21812;55.536;37.664;2022-10-16T00:57:34;101041.63;;;9.93;46.51
35694;BME280;21812;55.536;37.664;2022-10-16T01:00:01;101038.75;;;9.68;51.65
35694;BME280;21812;55.536;37.664;2022-10-16T01:02:27;101049.97;;;9.26;48.27
35694;BME280;21812;55.536;37.664;2022-10-16T01:04:54;101043.84;;;9.16;49.13
35694;BME280;21812;55.536;37.664;2022-10-16T01:18:24;101057.81;;;9.28;53.10
35694;BME280;21812;55.536;37.664;2022-10-16T01:21:16;101063.03;;;9.47;52.04
35694;BME280;21812;55.536;37.664;2022-10-16T01:29:27;101065.00;;;9.45;46.94
35694;BME280;21812;55.536;37.664;2022-10-16T01:32:00;101062.13;;;9.11;50.15
35694;BME280;21812;55.536;37.664;2022-10-16T01:34:49;101069.00;;;9.04;48.67
35694;BME280;21812;55.536;37.664;2022-10-16T01:37:53;101034.56;;;8.35;49.46
35694;BME280;21812;55.536;37.664;2022-10-16T01:40:12;101066.97;;;7.92;49.96
35694;BME280;21812;55.536;37.664;2022-10-16T01:42:46;101066.53;;;7.67;50.77
35694;BME280;21812;55.536;37.664;2022-10-16T01:45:14;101071.69;;;7.39;51.76
35694;BME280;21812;55.536;37.664;2022-10-16T01:47:44;101070.41;;;7.34;56.03
35694;BME280;21812;55.536;37.664;2022-10-16T01:50:12;101074.69;;;7.75;57.56
35694;BME280;21812;55.536;37.664;2022-10-16T01:52:43;101071.19;;;8.04;55.46
35694;BME280;21812;55.536;37.664;2022-10-16T01:55:12;101040.09;;;8.05;53.88
35694;BME280;21812;55.536;37.664;2022-10-16T01:57:42;101070.44;;;8.41;53.36
35694;BME280;21812;55.536;37.664;2022-10-16T02:00:11;101068.41;;;8.82;56.01
35694;BME280;21812;55.536;37.664;2022-10-16T02:02:41;101041.00;;;8.99;54.68
35694;BME280;21812;55.536;37.664;2022-10-16T02:05:30;101040.13;;;9.54;53.54
35694;BME280;21812;55.536;37.664;2022-10-16T02:07:57;101076.69;;;9.80;51.40
35694;BME280;21812;55.536;37.664;2022-10-16T02:10:24;101077.84;;;9.77;51.20
35694;BME280;21812;55.536;37.664;2022-10-16T02:12:57;101049.81;;;9.28;47.71
35694;BME280;21812;55.536;37.664;2022-10-16T02:15:44;101076.53;;;8.80;47.49
35694;BME280;21812;55.536;37.664;2022-10-16T02:18:10;101084.59;;;8.32;51.80
35694;BME280;21812;55.536;37.664;2022-10-16T02:20:53;101078.03;;;8.36;56.32
35694;BME280;21812;55.536;37.664;2022-10-16T02:26:44;101085.31;;;9.74;61.30
35694;BME280;21812;55.536;37.664;2022-10-16T02:29:17;101062.91;;;9.85;58.76
35694;BME280;21812;55.536;37.664;2022-10-16T02:31:47;101081.84;;;9.46;57.43
35694;BME280;21812;55.536;37.664;2022-10-16T02:34:16;101086.31;;;8.90;51.93
35694;BME280;21812;55.536;37.664;2022-10-16T02:36:44;101081.63;;;8.74;55.79
35694;BME280;21812;55.536;37.664;2022-10-16T02:39:11;101080.03;;;8.81;53.76
35694;BME280;21812;55.536;37.664;2022-10-16T02:41:37;101091.59;;;8.99;56.03
35694;BME280;21812;55.536;37.664;2022-10-16T02:44:03;101085.56;;;9.35;60.38
35694;BME280;21812;55.536;37.664;2022-10-16T02:46:28;101090.16;;;9.61;54.47
35694;BME280;21812;55.536;37.664;2022-10-16T02:48:54;101087.50;;;9.78;55.39
35694;BME280;21812;55.536;37.664;2022-10-16T02:51:19;101081.25;;;9.88;52.81
35694;BME280;21812;55.536;37.664;2022-10-16T02:53:45;101091.09;;;9.69;50.43
35694;BME280;21812;55.536;37.664;2022-10-16T02:56:11;101087.16;;;9.73;57.00
35694;BME280;21812;55.536;37.664;2022-10-16T02:58:36;101069.84;;;9.59;53.24
35694;BME280;21812;55.536;37.664;2022-10-16T03:01:02;101094.22;;;9.65;53.49
35694;BME280;21812;55.536;37.664;2022-10-16T03:03:28;101090.56;;;9.84;54.51
35694;BME280;21812;55.536;37.664;2022-10-16T03:05:54;101097.72;;;9.65;48.86
35694;BME280;21812;55.536;37.664;2022-10-16T03:08:19;101101.59;;;9.53;49.97
35694;BME280;21812;55.536;37.664;2022-10-16T03:10:49;101095.78;;;9.02;48.71
35694;BME280;21812;55.536;37.664;2022-10-16T03:13:15;101091.16;;;8.67;48.97
35694;BME280;21812;55.536;37.664;2022-10-16T03:15:40;101093.69;;;8.58;50.22
35694;BME280;21812;55.536;37.664;2022-10-16T03:18:06;101093.41;;;8.61;52.37
35694;BME280;21812;55.536;37.664;2022-10-16T03:20:32;101105.22;;;8.49;49.82
35694;BME280;21812;55.536;37.664;2022-10-16T03:22:58;101120.06;;;8.42;49.33
35694;BME280;21812;55.536;37.664;2022-10-16T03:25:23;101113.44;;;7.88;49.57
35694;BME280;21812;55.536;37.664;2022-10-16T03:27:49;101114.44;;;7.36;50.88
35694;BME280;21812;55.536;37.664;2022-10-16T03:30:15;101119.84;;;6.84;53.11
35694;BME280;21812;55.536;37.664;2022-10-16T03:32:42;101124.03;;;6.66;54.06
35694;BME280;21812;55.536;37.664;2022-10-16T03:35:08;101126.69;;;6.24;55.20
35694;BME280;21812;55.536;37.664;2022-10-16T03:37:34;101127.09;;;6.19;56.26
35694;BME280;21812;55.536;37.664;2022-10-16T03:40:00;101123.19;;;6.23;56.01
35694;BME280;21812;55.536;37.664;2022-10-16T03:42:25;101125.38;;;6.18;56.60
35694;BME280;21812;55.536;37.664;2022-10-16T03:44:51;101128.44;;;6.14;55.73
35694;BME280;21812;55.536;37.664;2022-10-16T03:47:16;101133.66;;;6.36;54.78
35694;BME280;21812;55.536;37.664;2022-10-16T03:49:45;101129.41;;;6.55;56.84
35694;BME280;21812;55.536;37.664;2022-10-16T03:52:11;101124.75;;;6.68;54.30
35694;BME280;21812;55.536;37.664;2022-10-16T03:54:39;101122.81;;;7.22;54.40
35694;BME280;21812;55.536;37.664;2022-10-16T03:57:07;101121.34;;;7.49;52.17
35694;BME280;21812;55.536;37.664;2022-10-16T03:59:33;101129.34;;;7.58;51.60
35694;BME280;21812;55.536;37.664;2022-10-16T04:01:58;101118.81;;;7.37;51.06
35694;BME280;21812;55.536;37.664;2022-10-16T04:04:24;101119.66;;;7.48;55.45
35694;BME280;21812;55.536;37.664;2022-10-16T04:06:50;101125.19;;;7.66;52.88
35694;BME280;21812;55.536;37.664;2022-10-16T04:09:16;101125.22;;;7.95;53.95
35694;BME280;21812;55.536;37.664;2022-10-16T04:11:42;101121.28;;;7.99;50.38
35694;BME280;21812;55.536;37.664;2022-10-16T04:14:08;101118.84;;;7.57;50.67
35694;BME280;21812;55.536;37.664;2022-10-16T04:16:34;101130.25;;;7.28;53.55
35694;BME280;21812;55.536;37.664;2022-10-16T04:18:59;101127.06;;;7.03;51.55
35694;BME280;21812;55.536;37.664;2022-10-16T04:21:25;101125.66;;;6.99;55.20
35694;BME280;21812;55.536;37.664;2022-10-16T04:23:51;101125.69;;;7.09;53.02
35694;BME280;21812;55.536;37.664;2022-10-16T04:26:16;101120.84;;;7.24;54.85
35694;BME280;21812;55.536;37.664;2022-10-16T04:28:42;101132.72;;;7.70;53.31
35694;BME280;21812;55.536;37.664;2022-10-16T04:31:08;101134.59;;;7.89;55.22
35694;BME280;21812;55.536;37.664;2022-10-16T04:33:34;101125.75;;;7.69;52.73
35694;BME280;21812;55.536;37.664;2022-10-16T04:36:00;101138.91;;;7.30;52.96
35694;BME280;21812;55.536;37.664;2022-10-16T04:38:26;101138.13;;;6.78;54.07
35694;BME280;21812;55.536;37.664;2022-10-16T04:40:52;101146.16;;;6.67;56.33
35694;BME280;21812;55.536;37.664;2022-10-16T04:43:18;101140.94;;;6.86;55.51
35694;BME280;21812;55.536;37.664;2022-10-16T04:45:44;101139.09;;;7.08;54.56
35694;BME280;21812;55.536;37.664;2022-10-16T04:48:10;101140.94;;;7.48;54.60
35694;BME280;21812;55.536;37.664;2022-10-16T04:50:35;101144.97;;;7.42;54.01
35694;BME280;21812;55.536;37.664;2022-10-16T04:53:05;101141.03;;;7.05;55.53
35694;BME280;21812;55.536;37.664;2022-10-16T04:55:31;101141.06;;;7.46;55.53
35694;BME280;21812;55.536;37.664;2022-10-16T04:57:56;101135.97;;;7.74;54.95
35694;BME280;21812;55.536;37.664;2022-10-16T05:00:22;101141.72;;;7.69;53.71
35694;BME280;21812;55.536;37.664;2022-10-16T05:02:50;101124.13;;;7.37;53.87
35694;BME280;21812;55.536;37.664;2022-10-16T05:05:16;101145.16;;;7.50;53.45
35694;BME280;21812;55.536;37.664;2022-10-16T05:07:44;101156.09;;;7.76;53.13
35694;BME280;21812;55.536;37.664;2022-10-16T05:10:10;101141.19;;;8.14;53.49
35694;BME280;21812;55.536;37.664;2022-10-16T05:12:35;101142.59;;;8.57;52.89
35694;BME280;21812;55.536;37.664;2022-10-16T05:15:01;101131.84;;;8.49;53.49
35694;BME280;21812;55.536;37.664;2022-10-16T05:17:28;101139.13;;;8.57;55.33
35694;BME280;21812;55.536;37.664;2022-10-16T05:19:54;101137.97;;;8.69;52.81
35694;BME280;21812;55.536;37.664;2022-10-16T05:22:19;101146.78;;;8.60;52.97
35694;BME280;21812;55.536;37.664;2022-10-16T05:24:45;101146.97;;;9.06;54.18
35694;BME280;21812;55.536;37.664;2022-10-16T05:27:11;101140.63;;;9.72;57.46
35694;BME280;21812;55.536;37.664;2022-10-16T05:29:47;101143.88;;;10.29;55.68
35694;BME280;21812;55.536;37.664;2022-10-16T05:32:16;101139.69;;;10.27;53.54
35694;BME280;21812;55.536;37.664;2022-10-16T05:34:45;101159.78;;;10.31;49.87
35694;BME280;21812;55.536;37.664;2022-10-16T05:37:11;101151.44;;;10.52;51.59
35694;BME280;21812;55.536;37.664;2022-10-16T05:39:38;101146.81;;;10.80;54.07
35694;BME280;21812;55.536;37.664;2022-10-16T05:42:04;101156.28;;;10.74;49.25
35694;BME280;21812;55.536;37.664;2022-10-16T05:44:30;101144.59;;;10.75;51.20
35694;BME280;21812;55.536;37.664;2022-10-16T05:46:56;101150.94;;;11.01;51.07
35694;BME280;21812;55.536;37.664;2022-10-16T05:49:21;101152.31;;;11.05;52.85
35694;BME280;21812;55.536;37.664;2022-10-16T05:51:47;101150.88;;;10.92;54.75
35694;BME280;21812;55.536;37.664;2022-10-16T05:54:12;101151.75;;;10.49;49.04
35694;BME280;21812;55.536;37.664;2022-10-16T05:56:38;101159.03;;;9.93;50.06
35694;BME280;21812;55.536;37.664;2022-10-16T05:59:04;101165.09;;;9.67;50.11
35694;BME280;21812;55.536;37.664;2022-10-16T06:01:30;101167.59;;;9.04;51.24
35694;BME280;21812;55.536;37.664;2022-10-16T06:03:56;101178.06;;;8.48;52.38
35694;BME280;21812;55.536;37.664;2022-10-16T06:06:25;101181.97;;;8.54;60.31
35694;BME280;21812;55.536;37.664;2022-10-16T06:08:52;101178.88;;;8.78;55.55
35694;BME280;21812;55.536;37.664;2022-10-16T06:11:21;101168.59;;;9.03;54.31
35694;BME280;21812;55.536;37.664;2022-10-16T06:13:51;101126.22;;;8.52;53.12
35694;BME280;21812;55.536;37.664;2022-10-16T06:16:17;101182.53;;;8.38;59.12
35694;BME280;21812;55.536;37.664;2022-10-16T06:18:43;101176.94;;;8.60;64.82
35694;BME280;21812;55.536;37.664;2022-10-16T06:21:20;101127.00;;;8.82;61.34
35694;BME280;21812;55.536;37.664;2022-10-16T06:23:47;101119.94;;;9.00;54.71
35694;BME280;21812;55.536;37.664;2022-10-16T06:26:16;101148.97;;;9.87;60.71
35694;BME280;21812;55.536;37.664;2022-10-16T06:28:42;101167.84;;;10.83;57.26
35694;BME280;21812;55.536;37.664;2022-10-16T06:31:09;101144.09;;;10.72;54.16
35694;BME280;21812;55.536;37.664;2022-10-16T06:33:36;101177.59;;;10.66;50.14
35694;BME280;21812;55.536;37.664;2022-10-16T06:36:10;101126.50;;;10.25;57.98
35694;BME280;21812;55.536;37.664;2022-10-16T06:38:37;101180.78;;;10.16;51.65
35694;BME280;21812;55.536;37.664;2022-10-16T06:41:05;101180.16;;;10.22;58.10
35694;BME280;21812;55.536;37.664;2022-10-16T06:43:31;101187.56;;;10.10;52.17
35694;BME280;21812;55.536;37.664;2022-10-16T06:45:59;101180.72;;;9.80;52.00
35694;BME280;21812;55.536;37.664;2022-10-16T06:48:25;101180.09;;;9.41;52.75
35694;BME280;21812;55.536;37.664;2022-10-16T06:53:27;101185.31;;;9.32;57.08
35694;BME280;21812;55.536;37.664;2022-10-16T06:55:54;101179.69;;;9.35;54.96
35694;BME280;21812;55.536;37.664;2022-10-16T06:58:19;101187.59;;;9.17;53.50
35694;BME280;21812;55.536;37.664;2022-10-16T07:00:45;101189.84;;;8.55;53.98
35694;BME280;21812;55.536;37.664;2022-10-16T07:03:11;101197.03;;;8.05;55.18
35694;BME280;21812;55.536;37.664;2022-10-16T07:05:41;101190.16;;;7.82;58.55
35694;BME280;21812;55.536;37.664;2022-10-16T07:08:08;101191.88;;;7.53;56.73
35694;BME280;21812;55.536;37.664;2022-10-16T07:10:34;101197.53;;;7.38;57.31
35694;BME280;21812;55.536;37.664;2022-10-16T07:13:00;101198.84;;;7.54;58.20
35694;BME280;21812;55.536;37.664;2022-10-16T07:15:26;101199.03;;;8.32;65.52
35694;BME280;21812;55.536;37.664;2022-10-16T07:17:52;101187.28;;;8.64;57.56
35694;BME280;21812;55.536;37.664;2022-10-16T07:20:18;101198.25;;;8.60;55.32
35694;BME280;21812;55.536;37.664;2022-10-16T07:22:43;101202.38;;;8.34;55.87
35694;BME280;21812;55.536;37.664;2022-10-16T07:25:09;101202.66;;;8.01;55.87
35694;BME280;21812;55.536;37.664;2022-10-16T07:27:36;101198.28;;;7.81;56.35
35694;BME280;21812;55.536;37.664;2022-10-16T07:30:03;101197.91;;;8.15;57.13
35694;BME280;21812;55.536;37.664;2022-10-16T07:32:29;101201.00;;;8.20;55.27
35694;BME280;21812;55.536;37.664;2022-10-16T07:34:54;101205.97;;;7.94;55.83
35694;BME280;21812;55.536;37.664;2022-10-16T07:37:21;101206.38;;;7.79;55.88
35694;BME280;21812;55.536;37.664;2022-10-16T07:39:46;101202.84;;;7.69;55.96
35694;BME280;21812;55.536;37.664;2022-10-16T07:42:12;101205.75;;;7.56;56.63
35694;BME280;21812;55.536;37.664;2022-10-16T07:44:38;101206.75;;;7.75;57.31
35694;BME280;21812;55.536;37.664;2022-10-16T07:47:03;101203.38;;;8.33;64.53
35694;BME280;21812;55.536;37.664;2022-10-16T07:49:29;101197.19;;;9.48;62.79
35694;BME280;21812;55.536;37.664;2022-10-16T07:51:55;101194.31;;;10.68;59.28
35694;BME280;21812;55.536;37.664;2022-10-16T07:54:20;101183.19;;;11.25;53.87
35694;BME280;21812;55.536;37.664;2022-10-16T07:56:46;101181.50;;;11.67;50.58
35694;BME280;21812;55.536;37.664;2022-10-16T07:59:11;101184.28;;;11.91;52.33
35694;BME280;21812;55.536;37.664;2022-10-16T08:01:37;101183.59;;;11.39;48.47
35694;BME280;21812;55.536;37.664;2022-10-16T08:04:03;101186.75;;;10.82;55.09
35694;BME280;21812;55.536;37.664;2022-10-16T08:06:28;101176.94;;;10.46;52.33
35694;BME280;21812;55.536;37.664;2022-10-16T08:08:55;101166.59;;;10.15;50.94
35694;BME280;21812;55.536;37.664;2022-10-16T08:11:21;101169.66;;;10.21;57.57
35694;BME280;21812;55.536;37.664;2022-10-16T08:13:46;101181.34;;;11.00;56.65
35694;BME280;21812;55.536;37.664;2022-10-16T08:16:12;101185.75;;;11.43;50.21
35694;BME280;21812;55.536;37.664;2022-10-16T08:18:40;101175.69;;;11.71;54.32
35694;BME280;21812;55.536;37.664;2022-10-16T08:21:06;101177.50;;;12.13;50.03
35694;BME280;21812;55.536;37.664;2022-10-16T08:23:33;101159.38;;;11.99;48.08
35694;BME280;21812;55.536;37.664;2022-10-16T08:26:07;101178.19;;;12.32;50.12
35694;BME280;21812;55.536;37.664;2022-10-16T08:28:33;101177.69;;;12.37;48.04
35694;BME280;21812;55.536;37.664;2022-10-16T08:33:36;101172.19;;;12.30;47.93
35694;BME280;21812;55.536;37.664;2022-10-16T08:36:03;101173.31;;;12.27;47.75
35694;BME280;21812;55.536;37.664;2022-10-16T08:38:32;101167.69;;;11.88;47.23
35694;BME280;21812;55.536;37.664;2022-10-16T08:47:06;101175.78;;;10.13;55.01
35694;BME280;21812;55.536;37.664;2022-10-16T08:49:39;101186.88;;;10.08;49.87
35694;BME280;21812;55.536;37.664;2022-10-16T08:52:12;101177.44;;;9.96;49.02
35694;BME280;21812;55.536;37.664;2022-10-16T08:54:41;101152.75;;;9.66;49.76
35694;BME280;21812;55.536;37.664;2022-10-16T08:57:11;101173.28;;;9.84;49.50
35694;BME280;21812;55.536;37.664;2022-10-16T08:59:37;101173.81;;;9.87;49.52
35694;BME280;21812;55.536;37.664;2022-10-16T09:02:24;101141.09;;;9.67;49.43
35694;BME280;21812;55.536;37.664;2022-10-16T09:18:45;101183.25;;;10.09;48.28
35694;BME280;21812;55.536;37.664;2022-10-16T09:23:37;101164.38;;;9.93;48.70
35694;BME280;21812;55.536;37.664;2022-10-16T09:26:04;101166.16;;;10.02;48.46
35694;BME280;21812;55.536;37.664;2022-10-16T09:28:31;101176.06;;;10.10;48.11
35694;BME280;21812;55.536;37.664;2022-10-16T09:30:56;101184.22;;;10.08;47.96
35694;BME280;21812;55.536;37.664;2022-10-16T09:33:25;101138.91;;;9.81;48.32
35694;BME280;21812;55.536;37.664;2022-10-16T09:35:56;101175.44;;;10.16;48.90
35694;BME280;21812;55.536;37.664;2022-10-16T09:38:32;101160.47;;;10.33;48.06
35694;BME280;21812;55.536;37.664;2022-10-16T09:41:00;101172.59;;;10.45;47.20
35694;BME280;21812;55.536;37.664;2022-10-16T09:48:49;101151.59;;;10.50;46.68
35694;BME280;21812;55.536;37.664;2022-10-16T09:51:36;101180.19;;;10.76;46.48
35694;BME280;21812;55.536;37.664;2022-10-16T09:56:32;101167.75;;;11.19;46.50
35694;BME280;21812;55.536;37.664;2022-10-16T09:59:02;101162.56;;;11.52;44.52
35694;BME280;21812;55.536;37.664;2022-10-16T10:01:36;101114.44;;;11.60;44.33
35694;BME280;21812;55.536;37.664;2022-10-16T10:04:03;101158.25;;;12.10;43.11
35694;BME280;21812;55.536;37.664;2022-10-16T10:06:35;101155.41;;;12.28;42.97
35694;BME280;21812;55.536;37.664;2022-10-16T10:14:17;101140.06;;;13.66;41.54
35694;BME280;21812;55.536;37.664;2022-10-16T10:16:43;101133.63;;;14.07;40.03
35694;BME280;21812;55.536;37.664;2022-10-16T10:19:16;101106.72;;;14.53;39.40
35694;BME280;21812;55.536;37.664;2022-10-16T10:21:42;101127.31;;;15.14;40.53
35694;BME280;21812;55.536;37.664;2022-10-16T10:24:12;101112.47;;;15.69;37.73
35694;BME280;21812;55.536;37.664;2022-10-16T10:26:54;101111.41;;;16.50;37.82
35694;BME280;21812;55.536;37.664;2022-10-16T10:30:01;101113.16;;;16.86;36.03
35694;BME280;21812;55.536;37.664;2022-10-16T10:32:42;101108.53;;;17.08;34.59
35694;BME280;21812;55.536;37.664;2022-10-16T10:42:53;101102.44;;;17.95;32.60
35694;BME280;21812;55.536;37.664;2022-10-16T10:45:25;101110.34;;;18.37;33.15
35694;BME280;21812;55.536;37.664;2022-10-16T10:50:43;101103.66;;;19.06;31.59
35694;BME280;21812;55.536;37.664;2022-10-16T10:56:05;101095.13;;;19.54;30.29
35694;BME280;21812;55.536;37.664;2022-10-16T11:01:14;101102.66;;;20.23;29.94
35694;BME280;21812;55.536;37.664;2022-10-16T11:06:40;101090.56;;;21.13;28.29
35694;BME280;21812;55.536;37.664;2022-10-16T11:09:13;101075.22;;;21.37;27.66
35694;BME280;21812;55.536;37.664;2022-10-16T11:11:45;101058.41;;;21.28;27.48
35694;BME280;21812;55.536;37.664;2022-10-16T11:14:29;101070.25;;;22.48;26.60
35694;BME280;21812;55.536;37.664;2022-10-16T11:25:30;101063.81;;;24.16;24.66
35694;BME280;21812;55.536;37.664;2022-10-16T11:28:10;101064.81;;;23.93;24.31
35694;BME280;21812;55.536;37.664;2022-10-16T11:31:02;101065.34;;;24.80;23.06
35694;BME280;21812;55.536;37.664;2022-10-16T11:33:41;101045.16;;;24.81;23.09
35694;BME280;21812;55.536;37.664;2022-10-16T11:36:31;101054.56;;;24.90;23.37
35694;BME280;21812;55.536;37.664;2022-10-16T11:39:20;101048.78;;;25.85;21.76
35694;BME280;21812;55.536;37.664;2022-10-16T11:42:13;101048.06;;;26.27;21.62
35694;BME280;21812;55.536;37.664;2022-10-16T11:47:33;101035.78;;;25.98;21.97
35694;BME280;21812;55.536;37.664;2022-10-16T11:50:13;101062.31;;;26.29;21.56
35694;BME280;21812;55.536;37.664;2022-10-16T11:55:20;101070.88;;;24.85;22.06
35694;BME280;21812;55.536;37.664;2022-10-16T11:58:01;101047.50;;;24.22;23.76
35694;BME280;21812;55.536;37.664;2022-10-16T12:00:31;101040.81;;;23.78;23.05
35694;BME280;21812;55.536;37.664;2022-10-16T12:08:22;101058.34;;;23.83;23.22
35694;BME280;21812;55.536;37.664;2022-10-16T12:10:48;101058.81;;;23.51;23.37
35694;BME280;21812;55.536;37.664;2022-10-16T12:13:37;101061.25;;;23.64;23.55
35694;BME280;21812;55.536;37.664;2022-10-16T12:18:44;101055.47;;;21.90;25.50
35694;BME280;21812;55.536;37.664;2022-10-16T12:21:11;101063.41;;;20.76;27.57
35694;BME280;21812;55.536;37.664;2022-10-16T12:23:56;101076.84;;;19.43;28.64
35694;BME280;21812;55.536;37.664;2022-10-16T12:26:28;101069.41;;;18.33;30.27
35694;BME280;21812;55.536;37.664;2022-10-16T12:28:55;101081.78;;;17.81;33.32
35694;BME280;21812;55.536;37.664;2022-10-16T12:31:21;101072.75;;;17.47;34.82
35694;BME280;21812;55.536;37.664;2022-10-16T12:34:22;101074.53;;;17.20;32.39
35694;BME280;21812;55.536;37.664;2022-10-16T12:36:50;101069.50;;;17.10;32.56
35694;BME280;21812;55.536;37.664;2022-10-16T12:39:24;101053.88;;;17.61;34.69
35694;BME280;21812;55.536;37.664;2022-10-16T12:42:21;101024.44;;;17.79;33.29
35694;BME280;21812;55.536;37.664;2022-10-16T12:44:47;101065.84;;;17.93;34.92
35694;BME280;21812;55.536;37.664;2022-10-16T12:47:22;101062.19;;;17.52;33.06
35694;BME280;21812;55.536;37.664;2022-10-16T12:49:51;101057.59;;;16.98;33.72
35694;BME280;21812;55.536;37.664;2022-10-16T12:52:37;101053.06;;;16.70;33.50
35694;BME280;21812;55.536;37.664;2022-10-16T12:55:16;101025.13;;;16.21;34.91
35694;BME280;21812;55.536;37.664;2022-10-16T12:58:06;101039.78;;;15.91;35.15
35694;BME280;21812;55.536;37.664;2022-10-16T13:17:29;101025.13;;;14.31;37.47
35694;BME280;21812;55.536;37.664;2022-10-16T13:25:40;101084.19;;;14.16;39.13
35694;BME280;21812;55.536;37.664;2022-10-16T13:28:11;101076.78;;;13.95;38.63
35694;BME280;21812;55.536;37.664;2022-10-16T13:30:53;101073.88;;;13.82;40.06
35694;BME280;21812;55.536;37.664;2022-10-16T13:35:51;101064.75;;;13.68;39.44
35694;BME280;21812;55.536;37.664;2022-10-16T13:38:23;101041.53;;;13.52;39.39
35694;BME280;21812;55.536;37.664;2022-10-16T13:43:20;101079.00;;;13.68;40.55
35694;BME280;21812;55.536;37.664;2022-10-16T13:45:57;101076.31;;;13.68;43.61
35694;BME280;21812;55.536;37.664;2022-10-16T13:48:23;101074.47;;;13.38;41.05
35694;BME280;21812;55.536;37.664;2022-10-16T13:50:59;101073.16;;;13.25;42.30
35694;BME280;21812;55.536;37.664;2022-10-16T13:53:25;101077.88;;;13.23;41.99
35694;BME280;21812;55.536;37.664;2022-10-16T13:55:50;101081.69;;;13.29;48.34
35694;BME280;21812;55.536;37.664;2022-10-16T13:58:16;101074.91;;;13.49;44.45
35694;BME280;21812;55.536;37.664;2022-10-16T14:00:58;101044.75;;;13.71;45.33
35694;BME280;21812;55.536;37.664;2022-10-16T14:03:26;101075.84;;;14.11;41.36
35694;BME280;21812;55.536;37.664;2022-10-16T14:05:59;101078.81;;;14.54;44.14
35694;BME280;21812;55.536;37.664;2022-10-16T14:08:26;101042.97;;;14.62;44.65
35694;BME280;21812;55.536;37.664;2022-10-16T14:10:56;101056.16;;;14.86;42.55
35694;BME280;21812;55.536;37.664;2022-10-16T14:13:34;101032.53;;;14.97;43.66
35694;BME280;21812;55.536;37.664;2022-10-16T14:16:06;101060.13;;;15.20;47.26
35694;BME280;21812;55.536;37.664;2022-10-16T14:18:33;101058.47;;;15.19;52.43
35694;BME280;21812;55.536;37.664;2022-10-16T14:21:07;101024.88;;;15.15;50.09
35694;BME280;21812;55.536;37.664;2022-10-16T14:23:38;101050.72;;;15.46;51.90
35694;BME280;21812;55.536;37.664;2022-10-16T14:28:37;101075.63;;;15.91;49.03
35694;BME280;21812;55.536;37.664;2022-10-16T14:31:24;101063.25;;;15.97;46.32
35694;BME280;21812;55.536;37.664;2022-10-16T14:33:50;101070.16;;;15.99;46.21
35694;BME280;21812;55.536;37.664;2022-10-16T14:36:17;101046.09;;;15.98;45.04
35694;BME280;21812;55.536;37.664;2022-10-16T14:39:03;101070.31;;;16.19;42.81
35694;BME280;21812;55.536;37.664;2022-10-16T14:41:31;101042.59;;;16.04;41.36
35694;BME280;21812;55.536;37.664;2022-10-16T14:44:04;101045.91;;;15.99;40.45
35694;BME280;21812;55.536;37.664;2022-10-16T14:46:36;101063.84;;;15.92;39.82
35694;BME280;21812;55.536;37.664;2022-10-16T14:51:39;101072.56;;;15.94;40.50
35694;BME280;21812;55.536;37.664;2022-10-16T14:54:11;101071.59;;;16.02;40.44
35694;BME280;21812;55.536;37.664;2022-10-16T14:56:50;101074.06;;;16.18;40.34
35694;BME280;21812;55.536;37.664;2022-10-16T14:59:36;101076.16;;;16.23;39.75
35694;BME280;21812;55.536;37.664;2022-10-16T15:04:54;101077.50;;;15.91;40.55
35694;BME280;21812;55.536;37.664;2022-10-16T15:07:20;101072.44;;;15.81;41.78
35694;BME280;21812;55.536;37.664;2022-10-16T15:09:46;101068.53;;;15.69;43.03
35694;BME280;21812;55.536;37.664;2022-10-16T15:12:12;101074.88;;;15.76;43.47
35694;BME280;21812;55.536;37.664;2022-10-16T15:14:37;101076.88;;;15.89;43.38